sensor_id;sensor_type;location;lat;lon;timestamp;pressure;altitude;pressure_sealevel;temperature;humidity
60719;BME280;46567;51.660;5.824;2022-10-29T00:08:40;102070.0;;;15.3;87.5
60719;BME280;46567;51.660;5.824;2022-10-29T00:18:15;102060.0;;;15.4;87.5
60719;BME280;46567;51.660;5.824;2022-10-29T00:28:15;102050.0;;;15.4;88.0
60719;BME280;46567;51.660;5.824;2022-10-29T00:38:40;102050.0;;;15.3;88.0
60719;BME280;46567;51.660;5.824;2022-10-29T00:48:15;102050.0;;;15.2;89.0
60719;BME280;46567;51.660;5.824;2022-10-29T00:58:15;102060.0;;;15.2;89.0
60719;BME280;46567;51.660;5.824;2022-10-29T01:08:15;102060.0;;;15.3;89.5
60719;BME280;46567;51.660;5.824;2022-10-29T01:18:34;102060.0;;;15.4;90.0
60719;BME280;46567;51.660;5.824;2022-10-29T01:30:36;102050.0;;;15.6;90.5
60719;BME280;46567;51.660;5.824;2022-10-29T01:58:15;102020.0;;;15.7;90.5
60719;BME280;46567;51.660;5.824;2022-10-29T02:18:16;101980.0;;;15.5;90.5
60719;BME280;46567;51.660;5.824;2022-10-29T02:58:15;101960.0;;;15.1;91.0
60719;BME280;46567;51.660;5.824;2022-10-29T03:08:15;101950.0;;;15.1;91.5
60719;BME280;46567;51.660;5.824;2022-10-29T03:28:15;101940.0;;;14.8;91.5
60719;BME280;46567;51.660;5.824;2022-10-29T03:38:15;101940.0;;;14.8;92.0
60719;BME280;46567;51.660;5.824;2022-10-29T03:48:16;101950.0;;;14.7;92.0
60719;BME280;46567;51.660;5.824;2022-10-29T03:58:15;101940.0;;;14.6;91.5
60719;BME280;46567;51.660;5.824;2022-10-29T04:08:16;101930.0;;;14.5;92.0
60719;BME280;46567;51.660;5.824;2022-10-29T04:18:15;101930.0;;;14.5;92.0
60719;BME280;46567;51.660;5.824;2022-10-29T04:28:15;101900.0;;;14.5;92.0
60719;BME280;46567;51.660;5.824;2022-10-29T04:38:40;101900.0;;;14.3;92.5
60719;BME280;46567;51.660;5.824;2022-10-29T04:48:40;101890.0;;;14.4;93.0
60719;BME280;46567;51.660;5.824;2022-10-29T04:58:40;101880.0;;;14.5;93.0
60719;BME280;46567;51.660;5.824;2022-10-29T05:08:15;101900.0;;;14.5;93.0
60719;BME280;46567;51.660;5.824;2022-10-29T05:28:40;101870.0;;;14.6;92.5
60719;BME280;46567;51.660;5.824;2022-10-29T05:38:40;101880.0;;;14.4;92.5
60719;BME280;46567;51.660;5.824;2022-10-29T05:48:15;101870.0;;;14.3;92.5
60719;BME280;46567;51.660;5.824;2022-10-29T05:58:15;101850.0;;;14.3;93.0
60719;BME280;46567;51.660;5.824;2022-10-29T06:08:16;101860.0;;;14.3;93.0
60719;BME280;46567;51.660;5.824;2022-10-29T06:18:40;101850.0;;;14.3;93.5
60719;BME280;46567;51.660;5.824;2022-10-29T06:29:05;101830.0;;;14.4;93.0
60719;BME280;46567;51.660;5.824;2022-10-29T06:38:15;101850.0;;;14.4;93.0
60719;BME280;46567;51.660;5.824;2022-10-29T06:48:40;101860.0;;;14.5;93.5
60719;BME280;46567;51.660;5.824;2022-10-29T06:58:17;101860.0;;;14.6;93.5
60719;BME280;46567;51.660;5.824;2022-10-29T07:18:15;101870.0;;;14.9;94.0
60719;BME280;46567;51.660;5.824;2022-10-29T07:28:18;101850.0;;;15.0;94.0
60719;BME280;46567;51.660;5.824;2022-10-29T07:38:15;101870.0;;;15.1;94.0
60719;BME280;46567;51.660;5.824;2022-10-29T07:48:16;101840.0;;;15.3;94.5
60719;BME280;46567;51.660;5.824;2022-10-29T07:58:15;101840.0;;;15.5;94.5
60719;BME280;46567;51.660;5.824;2022-10-29T08:08:15;101830.0;;;15.7;95.0
60719;BME280;46567;51.660;5.824;2022-10-29T08:18:17;101830.0;;;15.8;94.5
60719;BME280;46567;51.660;5.824;2022-10-29T08:28:15;101830.0;;;16.0;95.0
60719;BME280;46567;51.660;5.824;2022-10-29T08:38:15;101820.0;;;16.4;95.0
60719;BME280;46567;51.660;5.824;2022-10-29T08:48:34;101810.0;;;16.7;95.5
60719;BME280;46567;51.660;5.824;2022-10-29T08:58:22;101820.0;;;17.0;95.0
60719;BME280;46567;51.660;5.824;2022-10-29T09:08:43;101820.0;;;17.3;94.5
60719;BME280;46567;51.660;5.824;2022-10-29T09:18:55;101810.0;;;17.7;94.5
60719;BME280;46567;51.660;5.824;2022-10-29T09:28:29;101800.0;;;18.0;94.0
60719;BME280;46567;51.660;5.824;2022-10-29T09:38:52;101800.0;;;18.3;92.5
60719;BME280;46567;51.660;5.824;2022-10-29T09:48:23;101790.0;;;18.6;91.5
60719;BME280;46567;51.660;5.824;2022-10-29T09:58:22;101780.0;;;18.8;91.5
60719;BME280;46567;51.660;5.824;2022-10-29T10:08:16;101780.0;;;19.0;90.0
60719;BME280;46567;51.660;5.824;2022-10-29T10:18:41;101740.0;;;19.3;89.0
60719;BME280;46567;51.660;5.824;2022-10-29T10:28:21;101750.0;;;19.6;88.5
60719;BME280;46567;51.660;5.824;2022-10-29T10:38:16;101760.0;;;20.1;87.0
60719;BME280;46567;51.660;5.824;2022-10-29T10:48:16;101750.0;;;20.6;85.0
60719;BME280;46567;51.660;5.824;2022-10-29T10:58:22;101740.0;;;21.1;83.5
60719;BME280;46567;51.660;5.824;2022-10-29T11:08:22;101730.0;;;21.5;81.0
60719;BME280;46567;51.660;5.824;2022-10-29T11:18:32;101710.0;;;21.9;79.0
60719;BME280;46567;51.660;5.824;2022-10-29T11:28:20;101730.0;;;22.2;78.0
60719;BME280;46567;51.660;5.824;2022-10-29T11:38:19;101720.0;;;22.6;76.0
60719;BME280;46567;51.660;5.824;2022-10-29T11:48:35;101710.0;;;23.0;74.5
60719;BME280;46567;51.660;5.824;2022-10-29T11:58:21;101690.0;;;23.3;72.5
60719;BME280;46567;51.660;5.824;2022-10-29T12:08:27;101700.0;;;23.5;71.0
60719;BME280;46567;51.660;5.824;2022-10-29T12:18:26;101680.0;;;23.8;70.5
60719;BME280;46567;51.660;5.824;2022-10-29T12:28:21;101670.0;;;24.0;70.0
60719;BME280;46567;51.660;5.824;2022-10-29T12:38:32;101660.0;;;24.1;68.5
60719;BME280;46567;51.660;5.824;2022-10-29T12:48:22;101650.0;;;24.1;68.5
60719;BME280;46567;51.660;5.824;2022-10-29T12:58:45;101640.0;;;24.3;68.5
60719;BME280;46567;51.660;5.824;2022-10-29T13:08:32;101630.0;;;24.3;68.5
60719;BME280;46567;51.660;5.824;2022-10-29T13:18:19;101610.0;;;24.3;67.5
60719;BME280;46567;51.660;5.824;2022-10-29T13:28:51;101600.0;;;24.5;66.0
60719;BME280;46567;51.660;5.824;2022-10-29T13:38:16;101580.0;;;24.6;66.5
60719;BME280;46567;51.660;5.824;2022-10-29T13:48:21;101580.0;;;24.7;66.5
60719;BME280;46567;51.660;5.824;2022-10-29T13:58:19;101580.0;;;24.6;66.5
60719;BME280;46567;51.660;5.824;2022-10-29T14:08:18;101570.0;;;24.4;65.5
60719;BME280;46567;51.660;5.824;2022-10-29T14:18:17;101570.0;;;24.1;66.5
60719;BME280;46567;51.660;5.824;2022-10-29T14:28:17;101570.0;;;23.9;66.5
60719;BME280;46567;51.660;5.824;2022-10-29T14:38:16;101570.0;;;23.8;67.5
60719;BME280;46567;51.660;5.824;2022-10-29T14:48:16;101560.0;;;23.7;68.0
60719;BME280;46567;51.660;5.824;2022-10-29T14:58:19;101560.0;;;23.5;68.5
60719;BME280;46567;51.660;5.824;2022-10-29T15:08:21;101550.0;;;23.4;69.5
60719;BME280;46567;51.660;5.824;2022-10-29T15:18:20;101550.0;;;23.2;70.0
60719;BME280;46567;51.660;5.824;2022-10-29T15:28:20;101550.0;;;23.0;70.5
60719;BME280;46567;51.660;5.824;2022-10-29T15:39:07;101550.0;;;22.7;71.0
60719;BME280;46567;51.660;5.824;2022-10-29T15:48:35;101530.0;;;22.4;72.0
60719;BME280;46567;51.660;5.824;2022-10-29T15:58:18;101540.0;;;22.1;72.5
60719;BME280;46567;51.660;5.824;2022-10-29T16:08:21;101520.0;;;21.8;73.5
60719;BME280;46567;51.660;5.824;2022-10-29T16:18:16;101510.0;;;21.5;74.0
60719;BME280;46567;51.660;5.824;2022-10-29T16:48:16;101500.0;;;20.6;76.5
60719;BME280;46567;51.660;5.824;2022-10-29T16:58:16;101490.0;;;20.4;77.0
60719;BME280;46567;51.660;5.824;2022-10-29T17:08:16;101480.0;;;20.2;77.5
60719;BME280;46567;51.660;5.824;2022-10-29T17:28:16;101480.0;;;19.9;78.5
60719;BME280;46567;51.660;5.824;2022-10-29T17:38:40;101460.0;;;19.8;78.5
60719;BME280;46567;51.660;5.824;2022-10-29T17:48:16;101460.0;;;19.8;79.0
60719;BME280;46567;51.660;5.824;2022-10-29T17:58:16;101470.0;;;19.7;79.5
60719;BME280;46567;51.660;5.824;2022-10-29T18:08:16;101490.0;;;19.7;79.5
60719;BME280;46567;51.660;5.824;2022-10-29T18:18:16;101530.0;;;19.6;79.5
60719;BME280;46567;51.660;5.824;2022-10-29T18:28:40;101540.0;;;19.6;79.5
60719;BME280;46567;51.660;5.824;2022-10-29T18:38:16;101530.0;;;19.5;80.0
60719;BME280;46567;51.660;5.824;2022-10-29T18:48:42;101530.0;;;19.4;80.0
60719;BME280;46567;51.660;5.824;2022-10-29T18:58:16;101540.0;;;19.3;80.0
60719;BME280;46567;51.660;5.824;2022-10-29T19:08:42;101530.0;;;19.2;80.0
60719;BME280;46567;51.660;5.824;2022-10-29T19:18:16;101520.0;;;19.1;80.0
60719;BME280;46567;51.660;5.824;2022-10-29T19:28:16;101530.0;;;19.0;80.5
60719;BME280;46567;51.660;5.824;2022-10-29T19:38:16;101520.0;;;18.9;80.5
60719;BME280;46567;51.660;5.824;2022-10-29T19:48:16;101530.0;;;18.8;80.5
60719;BME280;46567;51.660;5.824;2022-10-29T19:58:16;101530.0;;;18.7;80.5
60719;BME280;46567;51.660;5.824;2022-10-29T20:08:16;101550.0;;;18.7;81.0
60719;BME280;46567;51.660;5.824;2022-10-29T20:28:16;101550.0;;;18.6;80.5
60719;BME280;46567;51.660;5.824;2022-10-29T20:38:16;101550.0;;;18.6;80.5
60719;BME280;46567;51.660;5.824;2022-10-29T20:48:16;101570.0;;;18.5;80.0
60719;BME280;46567;51.660;5.824;2022-10-29T20:58:16;101560.0;;;18.5;80.0
60719;BME280;46567;51.660;5.824;2022-10-29T21:18:16;101580.0;;;18.4;79.5
60719;BME280;46567;51.660;5.824;2022-10-29T21:38:16;101580.0;;;18.2;79.0
60719;BME280;46567;51.660;5.824;2022-10-29T21:59:01;101600.0;;;18.1;79.0
60719;BME280;46567;51.660;5.824;2022-10-29T22:19:01;101590.0;;;18.0;79.0
60719;BME280;46567;51.660;5.824;2022-10-29T22:38:16;101590.0;;;18.0;78.5
60719;BME280;46567;51.660;5.824;2022-10-29T22:58:16;101590.0;;;17.8;78.5
60719;BME280;46567;51.660;5.824;2022-10-29T23:18:17;101600.0;;;17.5;78.5
60719;BME280;46567;51.660;5.824;2022-10-29T23:38:16;101610.0;;;17.3;79.0
60719;BME280;46567;51.660;5.824;2022-10-29T23:59:01;101610.0;;;17.1;79.0
